Time;durP1;ratioP1;P1;durP2;ratioP2;P2;SDS_P1;SDS_P2;PMS_P1;PMS_P2;Temp;Humidity;BMP_temperature;BMP_pressure;BME280_temperature;BME280_humidity;BME280_pressure;Samples;Min_cycle;Max_cycle;Signal;HPM_P1;HPM_P2
2022/10/06 00:00:08;;;;;;;;;;;21.40;57.60;;;;;;5051469;28;20014;-42
2022/10/06 00:02:35;;;;;;;;;;;21.50;57.70;;;;;;5050317;28;19915;-44
2022/10/06 00:05:00;;;;;;;;;;;21.40;58.30;;;;;;5050289;28;20285;-42
2022/10/06 00:07:25;;;;;;;;;;;21.40;57.70;;;;;;5052370;28;19905;-42
2022/10/06 00:09:51;;;;;;;;;;;21.40;57.60;;;;;;5052007;28;19913;-57
2022/10/06 00:12:16;;;;;;;;;;;21.40;57.60;;;;;;5051677;28;19909;-44
2022/10/06 00:14:42;;;;;;;;;;;21.40;57.60;;;;;;5052228;28;20268;-43
2022/10/06 00:17:07;;;;;;;;;;;21.40;57.60;;;;;;5050873;28;19911;-42
2022/10/06 00:19:33;;;;;;;;;;;21.40;57.60;;;;;;5045004;28;19909;-43
2022/10/06 00:21:58;;;;;;;;;;;21.40;57.60;;;;;;5050976;28;20273;-42
2022/10/06 00:24:24;;;;;;;;;;;21.40;57.60;;;;;;5052136;28;19952;-42
2022/10/06 00:26:49;;;;;;;;;;;21.40;57.50;;;;;;5051614;28;19904;-53
2022/10/06 00:29:15;;;;;;;;;;;21.40;57.50;;;;;;5051540;28;19915;-42
2022/10/06 00:31:40;;;;;;;;;;;21.40;57.60;;;;;;5051590;28;19915;-42
2022/10/06 00:34:06;;;;;;;;;;;21.40;57.60;;;;;;5051315;28;19909;-42
2022/10/06 00:36:31;;;;;;;;;;;21.40;57.60;;;;;;5048158;28;19913;-43
2022/10/06 00:38:57;;;;;;;;;;;21.40;57.60;;;;;;5051082;28;20300;-42
2022/10/06 00:41:22;;;;;;;;;;;21.40;57.60;;;;;;5051568;28;19967;-43
2022/10/06 00:43:53;;;;;;;;;;;21.40;57.50;;;;;;5051138;28;20443;-42
2022/10/06 00:46:31;;;;;;;;;;;21.40;57.50;;;;;;5051203;28;19928;-43
2022/10/06 00:49:22;;;;;;;;;;;21.40;57.60;;;;;;5047078;28;19931;-43
2022/10/06 00:51:50;;;;;;;;;;;21.40;57.60;;;;;;5038816;28;20401;-49
2022/10/06 00:54:16;;;;;;;;;;;21.40;57.50;;;;;;5051149;28;19960;-42
2022/10/06 00:56:42;;;;;;;;;;;21.40;57.50;;;;;;5051312;28;19940;-43
2022/10/06 00:59:12;;;;;;;;;;;21.40;57.50;;;;;;5050868;28;19943;-43
2022/10/06 01:01:40;;;;;;;;;;;21.40;57.50;;;;;;5050881;28;19905;-43
2022/10/06 01:04:08;;;;;;;;;;;21.40;57.60;;;;;;5051052;28;19944;-43
2022/10/06 01:06:44;;;;;;;;;;;21.40;57.50;;;;;;5051300;28;19944;-44
2022/10/06 01:09:10;;;;;;;;;;;21.40;57.50;;;;;;5048384;28;19913;-43
2022/10/06 01:11:36;;;;;;;;;;;21.40;57.60;;;;;;5050820;28;20373;-42
2022/10/06 01:14:02;;;;;;;;;;;21.40;57.50;;;;;;5050940;28;19916;-43
2022/10/06 01:16:28;;;;;;;;;;;21.40;57.50;;;;;;5051588;28;19911;-43
2022/10/06 01:18:54;;;;;;;;;;;21.40;57.60;;;;;;5054344;28;20275;-56
2022/10/06 01:21:28;;;;;;;;;;;21.40;57.50;;;;;;5053518;28;19908;-43
2022/10/06 01:23:56;;;;;;;;;;;21.40;57.50;;;;;;5054710;28;19912;-56
2022/10/06 01:26:22;;;;;;;;;;;21.40;57.50;;;;;;5049443;28;20471;-42
2022/10/06 01:28:47;;;;;;;;;;;21.40;57.50;;;;;;5055401;28;20353;-42
2022/10/06 01:31:13;;;;;;;;;;;21.40;57.50;;;;;;5053868;28;19913;-43
2022/10/06 01:33:40;;;;;;;;;;;21.40;57.50;;;;;;5055241;28;19947;-43
2022/10/06 01:36:06;;;;;;;;;;;21.40;57.50;;;;;;5053903;28;19904;-42
2022/10/06 01:38:31;;;;;;;;;;;21.40;57.50;;;;;;5054416;28;19920;-43
2022/10/06 01:40:57;;;;;;;;;;;21.40;57.50;;;;;;5051035;28;19905;-47
2022/10/06 01:43:23;;;;;;;;;;;21.40;57.50;;;;;;5052935;28;19951;-45
2022/10/06 01:45:55;;;;;;;;;;;21.40;57.60;;;;;;5053121;28;20299;-47
2022/10/06 01:48:20;;;;;;;;;;;21.40;57.50;;;;;;5053758;28;19909;-42
2022/10/06 01:50:46;;;;;;;;;;;21.40;57.50;;;;;;5052334;28;19920;-47
2022/10/06 01:53:11;;;;;;;;;;;21.40;57.60;;;;;;5052715;28;19905;-44
2022/10/06 01:55:37;;;;;;;;;;;21.40;57.50;;;;;;5053000;28;19912;-42
2022/10/06 01:58:02;;;;;;;;;;;21.40;57.50;;;;;;5052762;28;19904;-43
2022/10/06 02:00:28;;;;;;;;;;;21.40;57.60;;;;;;5051308;28;20369;-45
2022/10/06 02:02:53;;;;;;;;;;;21.40;57.60;;;;;;5052767;28;19905;-43
2022/10/06 02:05:19;;;;;;;;;;;21.40;57.60;;;;;;5052692;28;19959;-43
2022/10/06 02:07:44;;;;;;;;;;;21.40;57.60;;;;;;5053300;28;19951;-44
2022/10/06 02:10:10;;;;;;;;;;;21.30;57.50;;;;;;5051908;28;19928;-43
2022/10/06 02:12:35;;;;;;;;;;;21.40;57.60;;;;;;5053406;28;20570;-42
2022/10/06 02:15:01;;;;;;;;;;;21.40;57.60;;;;;;5048345;28;19913;-42
2022/10/06 02:17:27;;;;;;;;;;;21.40;57.60;;;;;;5053427;28;19915;-46
2022/10/06 02:19:53;;;;;;;;;;;21.40;57.60;;;;;;5049868;28;19905;-57
2022/10/06 02:22:18;;;;;;;;;;;21.40;57.60;;;;;;5052514;28;20420;-42
2022/10/06 02:24:44;;;;;;;;;;;21.40;57.50;;;;;;5053389;28;19909;-43
2022/10/06 02:27:10;;;;;;;;;;;21.40;57.60;;;;;;5053158;28;20368;-42
2022/10/06 02:29:35;;;;;;;;;;;21.40;57.60;;;;;;5052938;28;19966;-49
2022/10/06 02:32:01;;;;;;;;;;;21.40;57.60;;;;;;5047767;28;19913;-42
2022/10/06 02:34:26;;;;;;;;;;;21.40;57.60;;;;;;5054100;28;19909;-53
2022/10/06 02:36:52;;;;;;;;;;;21.40;57.60;;;;;;5053327;28;20387;-57
2022/10/06 02:39:18;;;;;;;;;;;21.40;57.60;;;;;;5053458;28;19927;-43
2022/10/06 02:41:43;;;;;;;;;;;21.40;58.20;;;;;;5053897;28;19905;-43
2022/10/06 02:44:09;;;;;;;;;;;21.30;57.50;;;;;;5052550;28;19917;-43
2022/10/06 02:46:34;;;;;;;;;;;21.30;57.50;;;;;;5051670;28;20003;-45
2022/10/06 02:49:00;;;;;;;;;;;21.40;57.60;;;;;;5052265;28;19967;-43
2022/10/06 02:51:25;;;;;;;;;;;21.40;57.60;;;;;;5045766;28;19948;-43
2022/10/06 02:53:51;;;;;;;;;;;21.40;57.60;;;;;;5053538;28;20293;-56
2022/10/06 02:56:21;;;;;;;;;;;21.40;57.60;;;;;;5052767;28;20356;-43
2022/10/06 02:58:46;;;;;;;;;;;21.40;57.50;;;;;;5053697;28;19930;-46
2022/10/06 03:01:25;;;;;;;;;;;21.40;57.60;;;;;;5052404;28;20535;-42
2022/10/06 03:03:51;;;;;;;;;;;21.40;57.50;;;;;;5050868;28;19948;-57
2022/10/06 03:06:21;;;;;;;;;;;21.40;57.60;;;;;;5052291;28;19948;-43
2022/10/06 03:08:50;;;;;;;;;;;21.30;57.50;;;;;;5053292;28;20014;-44
2022/10/06 03:11:18;;;;;;;;;;;21.30;57.50;;;;;;5052281;28;20023;-42
2022/10/06 03:13:45;;;;;;;;;;;21.40;57.50;;;;;;5053224;28;20342;-44
2022/10/06 03:16:27;;;;;;;;;;;21.40;57.40;;;;;;5051973;28;19915;-42
2022/10/06 03:18:53;;;;;;;;;;;21.40;57.50;;;;;;5052858;28;19999;-57
2022/10/06 03:21:20;;;;;;;;;;;21.30;57.40;;;;;;5050779;28;19915;-44
2022/10/06 03:23:47;;;;;;;;;;;21.40;57.50;;;;;;5053774;28;19940;-42
2022/10/06 03:26:16;;;;;;;;;;;21.40;57.50;;;;;;5051632;28;20462;-43
2022/10/06 03:28:42;;;;;;;;;;;21.30;57.40;;;;;;5052966;28;19913;-44
2022/10/06 03:31:08;;;;;;;;;;;21.30;57.50;;;;;;5051528;28;19989;-42
2022/10/06 03:33:34;;;;;;;;;;;21.30;57.40;;;;;;5053243;28;20326;-43
2022/10/06 03:36:02;;;;;;;;;;;21.30;57.40;;;;;;5048873;28;19905;-42
2022/10/06 03:38:31;;;;;;;;;;;21.30;57.30;;;;;;5051991;28;19905;-42
2022/10/06 03:41:13;;;;;;;;;;;21.30;57.40;;;;;;5050884;28;19935;-43
2022/10/06 03:43:39;;;;;;;;;;;21.30;57.40;;;;;;5052631;28;20003;-42
2022/10/06 03:46:05;;;;;;;;;;;21.30;57.40;;;;;;5051641;28;19905;-43
2022/10/06 03:48:34;;;;;;;;;;;21.30;57.40;;;;;;5052853;28;19915;-43
2022/10/06 03:51:01;;;;;;;;;;;21.30;57.40;;;;;;5050463;28;20377;-44
2022/10/06 03:53:28;;;;;;;;;;;21.30;57.40;;;;;;5049998;28;19909;-42
2022/10/06 03:56:05;;;;;;;;;;;21.30;57.30;;;;;;5050757;28;19908;-56
2022/10/06 03:58:31;;;;;;;;;;;21.30;57.40;;;;;;5051748;28;19912;-42
2022/10/06 04:01:09;;;;;;;;;;;21.30;57.30;;;;;;5050920;28;19932;-43
2022/10/06 04:03:34;;;;;;;;;;;21.30;57.40;;;;;;5052549;28;20003;-43
2022/10/06 04:06:01;;;;;;;;;;;21.30;57.40;;;;;;5051361;28;19940;-42
2022/10/06 04:08:27;;;;;;;;;;;21.30;57.40;;;;;;5051050;28;19916;-42
2022/10/06 04:10:53;;;;;;;;;;;21.30;57.40;;;;;;5046547;28;19955;-57
2022/10/06 04:13:19;;;;;;;;;;;21.30;57.40;;;;;;5034390;28;19955;-41
2022/10/06 04:15:45;;;;;;;;;;;21.30;57.40;;;;;;5034094;28;20317;-41
2022/10/06 04:18:11;;;;;;;;;;;21.30;57.50;;;;;;5051540;28;19940;-42
2022/10/06 04:20:37;;;;;;;;;;;21.30;57.50;;;;;;5049219;28;19976;-42
2022/10/06 04:23:03;;;;;;;;;;;21.30;57.50;;;;;;5051562;28;19913;-47
2022/10/06 04:25:28;;;;;;;;;;;21.30;57.40;;;;;;5045983;28;19934;-45
2022/10/06 04:27:54;;;;;;;;;;;21.30;57.30;;;;;;5051585;28;20011;-56
2022/10/06 04:30:19;;;;;;;;;;;21.30;57.40;;;;;;5051373;28;19909;-43
2022/10/06 04:32:45;;;;;;;;;;;21.30;57.40;;;;;;5051860;28;20003;-43
2022/10/06 04:35:10;;;;;;;;;;;21.30;57.40;;;;;;5050900;28;19920;-43
2022/10/06 04:37:36;;;;;;;;;;;21.30;57.40;;;;;;5051678;28;20274;-43
2022/10/06 04:40:01;;;;;;;;;;;21.30;57.40;;;;;;5050996;28;19991;-43
2022/10/06 04:42:27;;;;;;;;;;;21.30;57.40;;;;;;5049351;28;19947;-42
2022/10/06 04:44:53;;;;;;;;;;;21.30;57.40;;;;;;5050441;28;19924;-56
2022/10/06 04:47:18;;;;;;;;;;;21.30;57.40;;;;;;5051316;28;19913;-43
2022/10/06 04:49:44;;;;;;;;;;;21.30;57.40;;;;;;5051260;28;19909;-43
2022/10/06 04:52:09;;;;;;;;;;;21.30;57.40;;;;;;5050064;28;20318;-44
2022/10/06 04:54:35;;;;;;;;;;;21.30;57.40;;;;;;5054751;28;19944;-45
2022/10/06 04:57:00;;;;;;;;;;;21.30;57.50;;;;;;5053035;28;20346;-42
2022/10/06 05:00:21;;;;;;;;;;;21.30;57.30;;;;;;5052381;28;19931;-44
2022/10/06 05:02:11;;;;;;;;;;;21.30;57.40;;;;;;5050988;28;20000;-43
2022/10/06 05:04:37;;;;;;;;;;;21.40;57.50;;;;;;5054692;28;20027;-43
2022/10/06 05:07:02;;;;;;;;;;;21.30;57.50;;;;;;5052653;28;20331;-43
2022/10/06 05:09:27;;;;;;;;;;;21.30;57.50;;;;;;5053782;28;19913;-48
2022/10/06 05:11:53;;;;;;;;;;;21.30;57.40;;;;;;5034842;28;19931;-56
2022/10/06 05:14:18;;;;;;;;;;;21.30;57.40;;;;;;5053798;28;19905;-46
2022/10/06 05:16:44;;;;;;;;;;;21.30;57.40;;;;;;5051174;28;20364;-42
2022/10/06 05:19:10;;;;;;;;;;;21.30;57.40;;;;;;5052821;28;20154;-42
2022/10/06 05:21:35;;;;;;;;;;;21.30;58.00;;;;;;5053266;28;19959;-43
2022/10/06 05:24:02;;;;;;;;;;;21.30;57.40;;;;;;5052599;28;19916;-42
2022/10/06 05:26:29;;;;;;;;;;;21.30;57.40;;;;;;5054301;28;20312;-43
2022/10/06 05:28:54;;;;;;;;;;;21.30;57.50;;;;;;5054332;28;19952;-56
2022/10/06 05:31:30;;;;;;;;;;;21.30;57.40;;;;;;5052266;28;20387;-42
2022/10/06 05:33:57;;;;;;;;;;;21.30;57.50;;;;;;5054461;28;20003;-45
2022/10/06 05:36:23;;;;;;;;;;;21.30;57.50;;;;;;5054344;28;19905;-42
2022/10/06 05:38:49;;;;;;;;;;;21.30;57.50;;;;;;5055147;28;19915;-43
2022/10/06 05:41:14;;;;;;;;;;;21.30;57.40;;;;;;5054025;28;19905;-43
2022/10/06 05:43:40;;;;;;;;;;;21.30;57.50;;;;;;5054571;28;19921;-42
2022/10/06 05:46:16;;;;;;;;;;;21.30;57.40;;;;;;5053221;28;19991;-43
2022/10/06 05:48:45;;;;;;;;;;;21.30;57.50;;;;;;5051586;28;20361;-42
2022/10/06 05:51:11;;;;;;;;;;;21.30;57.60;;;;;;5032212;28;20551;-42
2022/10/06 05:53:36;;;;;;;;;;;21.40;57.70;;;;;;5054977;28;19999;-44
2022/10/06 05:56:06;;;;;;;;;;;21.40;57.70;;;;;;5053296;28;19909;-41
2022/10/06 05:58:33;;;;;;;;;;;21.50;57.90;;;;;;5054681;28;19962;-42
2022/10/06 06:01:05;;;;;;;;;;;21.50;58.10;;;;;;5053574;28;19909;-42
2022/10/06 06:03:30;;;;;;;;;;;21.50;58.20;;;;;;5053946;28;20376;-43
2022/10/06 06:05:56;;;;;;;;;;;21.50;58.60;;;;;;5052101;28;19905;-51
2022/10/06 06:08:21;;;;;;;;;;;21.50;58.60;;;;;;5050246;28;19913;-42
2022/10/06 06:10:47;;;;;;;;;;;21.50;58.80;;;;;;5053613;28;19909;-43
2022/10/06 06:13:18;;;;;;;;;;;21.50;59.10;;;;;;5052615;28;19909;-43
2022/10/06 06:16:03;;;;;;;;;;;21.60;59.30;;;;;;5053749;28;19905;-45
2022/10/06 06:18:37;;;;;;;;;;;21.60;59.50;;;;;;5052886;28;19928;-43
2022/10/06 06:21:05;;;;;;;;;;;21.60;59.60;;;;;;5050869;28;20023;-47
2022/10/06 06:23:31;;;;;;;;;;;21.60;59.70;;;;;;5053644;28;19958;-44
2022/10/06 06:26:00;;;;;;;;;;;21.60;59.70;;;;;;5051940;28;19948;-42
2022/10/06 06:28:28;;;;;;;;;;;21.60;59.80;;;;;;5051582;28;19909;-42
2022/10/06 06:31:06;;;;;;;;;;;21.60;59.80;;;;;;5052871;28;19936;-58
2022/10/06 06:33:32;;;;;;;;;;;21.60;59.80;;;;;;5052646;28;19913;-42
2022/10/06 06:36:01;;;;;;;;;;;21.50;59.00;;;;;;5051444;28;19905;-43
2022/10/06 06:38:27;;;;;;;;;;;21.50;59.00;;;;;;5053433;28;20285;-51
2022/10/06 06:40:52;;;;;;;;;;;21.50;59.00;;;;;;5052438;28;19911;-57
2022/10/06 06:43:18;;;;;;;;;;;21.40;58.50;;;;;;5051682;28;20322;-45
2022/10/06 06:45:43;;;;;;;;;;;21.40;57.80;;;;;;5052071;28;19917;-42
2022/10/06 06:48:13;;;;;;;;;;;21.40;57.80;;;;;;5051544;28;19909;-43
2022/10/06 06:50:38;;;;;;;;;;;21.40;58.20;;;;;;5046030;28;19913;-42
2022/10/06 06:53:04;;;;;;;;;;;21.40;58.50;;;;;;5051108;28;19912;-43
2022/10/06 06:55:29;;;;;;;;;;;21.40;58.70;;;;;;5047079;28;20320;-43
2022/10/06 06:57:55;;;;;;;;;;;21.40;58.70;;;;;;5043260;28;20251;-43
2022/10/06 07:00:22;;;;;;;;;;;21.40;59.00;;;;;;5048955;28;19951;-43
2022/10/06 07:02:54;;;;;;;;;;;21.40;59.00;;;;;;5047731;28;19909;-42
2022/10/06 07:05:23;;;;;;;;;;;21.40;59.10;;;;;;5052665;28;19904;-48
2022/10/06 07:07:48;;;;;;;;;;;21.40;59.20;;;;;;5052732;28;19904;-43
2022/10/06 07:10:14;;;;;;;;;;;21.40;59.20;;;;;;5051022;28;20510;-43
2022/10/06 07:12:39;;;;;;;;;;;21.40;59.40;;;;;;5052722;28;19912;-50
2022/10/06 07:26:03;;;;;;;;;;;21.50;59.60;;;;;;5050836;28;19912;-44
2022/10/06 07:28:31;;;;;;;;;;;21.50;59.70;;;;;;5052315;28;19912;-43
2022/10/06 07:30:59;;;;;;;;;;;21.50;59.70;;;;;;5050916;28;19944;-45
2022/10/06 07:33:27;;;;;;;;;;;21.40;59.70;;;;;;5052476;28;19995;-42
2022/10/06 07:35:53;;;;;;;;;;;21.50;59.70;;;;;;5044315;28;19952;-55
2022/10/06 07:38:24;;;;;;;;;;;21.50;59.70;;;;;;5048019;28;20416;-42
2022/10/06 07:40:53;;;;;;;;;;;21.50;59.70;;;;;;5052296;28;19904;-45
2022/10/06 07:43:19;;;;;;;;;;;21.50;59.70;;;;;;5049796;28;19959;-42
2022/10/06 07:45:45;;;;;;;;;;;21.50;59.70;;;;;;5051177;28;19936;-43
2022/10/06 07:48:18;;;;;;;;;;;21.50;59.70;;;;;;5051150;28;20282;-50
2022/10/06 07:50:46;;;;;;;;;;;21.50;59.70;;;;;;5051625;28;19962;-42
2022/10/06 07:53:12;;;;;;;;;;;21.50;59.70;;;;;;5051209;28;19916;-42
2022/10/06 07:55:38;;;;;;;;;;;21.50;59.70;;;;;;5051196;28;20265;-42
2022/10/06 07:58:08;;;;;;;;;;;21.50;59.60;;;;;;5051257;28;19918;-42
2022/10/06 08:00:34;;;;;;;;;;;21.50;59.60;;;;;;5051506;28;19950;-46
2022/10/06 08:02:59;;;;;;;;;;;21.50;59.70;;;;;;5050936;28;20331;-43
2022/10/06 08:05:24;;;;;;;;;;;21.50;59.70;;;;;;5047418;28;19909;-43
2022/10/06 08:07:50;;;;;;;;;;;21.50;59.80;;;;;;5050493;28;20376;-43
2022/10/06 08:10:17;;;;;;;;;;;21.50;59.80;;;;;;5050403;28;19909;-43
2022/10/06 08:12:42;;;;;;;;;;;21.50;59.70;;;;;;5051598;28;19904;-48
2022/10/06 08:15:10;;;;;;;;;;;21.50;59.70;;;;;;5049305;28;20023;-42
2022/10/06 08:17:36;;;;;;;;;;;21.50;59.70;;;;;;5049122;28;19962;-44
2022/10/06 08:20:03;;;;;;;;;;;21.50;59.60;;;;;;5049574;28;19913;-45
2022/10/06 08:22:29;;;;;;;;;;;21.50;59.70;;;;;;5047056;28;19909;-44
2022/10/06 08:24:56;;;;;;;;;;;21.50;59.70;;;;;;5050651;28;20235;-55
2022/10/06 08:27:23;;;;;;;;;;;21.60;59.70;;;;;;5047051;28;19924;-43
2022/10/06 08:29:48;;;;;;;;;;;21.60;59.60;;;;;;5049277;28;20261;-50
2022/10/06 08:32:14;;;;;;;;;;;21.50;59.50;;;;;;5050408;28;19908;-44
2022/10/06 08:34:40;;;;;;;;;;;21.60;59.60;;;;;;5049986;28;20003;-49
2022/10/06 08:37:06;;;;;;;;;;;21.50;59.50;;;;;;5049229;28;20479;-44
2022/10/06 08:39:31;;;;;;;;;;;21.60;59.50;;;;;;5050781;28;19909;-50
2022/10/06 08:41:57;;;;;;;;;;;21.60;59.50;;;;;;5049037;28;19962;-49
2022/10/06 08:44:34;;;;;;;;;;;21.60;59.50;;;;;;5050691;28;19920;-43
2022/10/06 08:47:01;;;;;;;;;;;21.60;59.50;;;;;;5049582;28;19944;-42
2022/10/06 08:49:33;;;;;;;;;;;21.60;59.50;;;;;;5051428;28;19908;-44
2022/10/06 08:52:08;;;;;;;;;;;21.60;59.50;;;;;;5050324;28;19913;-42
2022/10/06 08:54:46;;;;;;;;;;;21.60;59.50;;;;;;5051627;28;19905;-43
2022/10/06 08:57:12;;;;;;;;;;;21.60;59.60;;;;;;5049829;28;19958;-45
2022/10/06 08:59:37;;;;;;;;;;;21.60;59.50;;;;;;5050996;28;19909;-42
2022/10/06 09:02:14;;;;;;;;;;;21.60;59.50;;;;;;5048327;28;19916;-50
2022/10/06 09:04:40;;;;;;;;;;;21.60;59.60;;;;;;5050708;28;19909;-42
2022/10/06 09:07:11;;;;;;;;;;;21.60;59.60;;;;;;5048691;28;19905;-43
2022/10/06 09:09:37;;;;;;;;;;;21.60;60.10;;;;;;5053213;28;19916;-43
2022/10/06 09:12:29;;;;;;;;;;;21.60;59.60;;;;;;5049950;28;19908;-43
2022/10/06 09:15:07;;;;;;;;;;;21.60;59.70;;;;;;5025904;28;19915;-57
2022/10/06 09:17:38;;;;;;;;;;;21.60;59.60;;;;;;5050908;28;20373;-50
2022/10/06 09:20:10;;;;;;;;;;;21.60;59.60;;;;;;5043237;28;19927;-43
2022/10/06 09:22:36;;;;;;;;;;;21.60;59.60;;;;;;5047265;28;19974;-44
2022/10/06 09:25:13;;;;;;;;;;;21.70;59.70;;;;;;5049838;28;19904;-42
2022/10/06 09:27:40;;;;;;;;;;;21.60;59.70;;;;;;5051040;28;20388;-42
2022/10/06 09:30:10;;;;;;;;;;;21.60;59.70;;;;;;5049462;28;19920;-42
2022/10/06 09:32:38;;;;;;;;;;;21.60;59.70;;;;;;5050789;28;19934;-42
2022/10/06 09:35:14;;;;;;;;;;;21.60;59.70;;;;;;5049576;28;19915;-43
2022/10/06 09:37:51;;;;;;;;;;;21.60;59.70;;;;;;5050839;28;19911;-42
2022/10/06 09:40:33;;;;;;;;;;;21.70;59.80;;;;;;5053544;28;20002;-43
2022/10/06 09:42:58;;;;;;;;;;;21.70;59.70;;;;;;5053591;28;19904;-44
2022/10/06 09:45:24;;;;;;;;;;;21.60;59.70;;;;;;5032005;28;20350;-42
2022/10/06 09:47:50;;;;;;;;;;;21.60;59.70;;;;;;5034260;28;19945;-43
2022/10/06 09:50:27;;;;;;;;;;;21.60;59.70;;;;;;5029024;28;20868;-44
2022/10/06 09:52:56;;;;;;;;;;;21.60;59.60;;;;;;5033654;28;19940;-56
2022/10/06 09:55:25;;;;;;;;;;;21.70;59.70;;;;;;5032759;28;19909;-44
2022/10/06 09:57:52;;;;;;;;;;;21.70;59.60;;;;;;5030945;28;19909;-54
2022/10/06 10:00:37;;;;;;;;;;;21.70;59.60;;;;;;5032556;28;20397;-43
2022/10/06 10:03:07;;;;;;;;;;;21.70;59.50;;;;;;5033132;28;20375;-43
2022/10/06 10:05:33;;;;;;;;;;;21.70;59.50;;;;;;5033268;28;19913;-52
2022/10/06 10:08:17;;;;;;;;;;;21.70;59.40;;;;;;5033487;28;19905;-45
2022/10/06 10:10:43;;;;;;;;;;;21.70;60.20;;;;;;5033399;28;19962;-44
2022/10/06 10:13:20;;;;;;;;;;;21.80;60.50;;;;;;5033182;28;19905;-45
2022/10/06 10:15:53;;;;;;;;;;;21.80;60.40;;;;;;5032863;28;19905;-46
2022/10/06 10:18:25;;;;;;;;;;;21.80;60.30;;;;;;5026701;28;19909;-43
2022/10/06 10:20:58;;;;;;;;;;;21.80;61.30;;;;;;5024620;28;19909;-55
2022/10/06 10:23:24;;;;;;;;;;;21.80;61.10;;;;;;5034310;28;19996;-47
2022/10/06 10:26:12;;;;;;;;;;;21.80;61.90;;;;;;5032836;28;20354;-43
2022/10/06 10:28:47;;;;;;;;;;;21.80;62.10;;;;;;5033784;28;19913;-45
2022/10/06 10:31:24;;;;;;;;;;;21.80;61.50;;;;;;5031419;28;20440;-41
2022/10/06 10:33:59;;;;;;;;;;;21.80;61.50;;;;;;5030985;28;19920;-42
2022/10/06 10:36:31;;;;;;;;;;;21.80;61.20;;;;;;5031940;28;19905;-42
2022/10/06 10:38:57;;;;;;;;;;;21.80;60.90;;;;;;5029630;28;19905;-42
2022/10/06 10:41:24;;;;;;;;;;;21.80;61.00;;;;;;5031464;28;19905;-42
2022/10/06 10:44:06;;;;;;;;;;;21.80;61.90;;;;;;5039457;28;19917;-41
2022/10/06 10:46:44;;;;;;;;;;;21.90;61.60;;;;;;5052946;28;20365;-45
2022/10/06 10:49:25;;;;;;;;;;;21.80;62.00;;;;;;5047405;28;20292;-43
2022/10/06 10:51:56;;;;;;;;;;;21.90;61.50;;;;;;5052250;28;19916;-52
2022/10/06 10:54:24;;;;;;;;;;;21.80;62.40;;;;;;5053359;28;19909;-43
2022/10/06 10:56:51;;;;;;;;;;;21.80;62.20;;;;;;5052670;28;20289;-42
2022/10/06 10:59:22;;;;;;;;;;;21.90;61.90;;;;;;5047625;28;20019;-44
2022/10/06 11:02:06;;;;;;;;;;;21.80;61.70;;;;;;5052090;28;20281;-43
2022/10/06 11:04:32;;;;;;;;;;;21.80;61.60;;;;;;5047861;28;19913;-44
2022/10/06 11:06:57;;;;;;;;;;;21.80;61.70;;;;;;5046264;28;20368;-43
2022/10/06 11:09:48;;;;;;;;;;;21.80;61.50;;;;;;5052501;28;19912;-43
2022/10/06 11:12:13;;;;;;;;;;;21.80;61.30;;;;;;5042657;28;19908;-49
2022/10/06 11:14:45;;;;;;;;;;;21.80;61.40;;;;;;5035046;28;19911;-44
2022/10/06 11:17:29;;;;;;;;;;;21.80;61.30;;;;;;5045756;28;19919;-43
2022/10/06 11:20:19;;;;;;;;;;;21.80;61.50;;;;;;5049444;28;19908;-55
2022/10/06 11:22:59;;;;;;;;;;;21.80;61.50;;;;;;5050102;28;19908;-43
2022/10/06 11:25:24;;;;;;;;;;;21.80;61.50;;;;;;5052221;28;19904;-43
2022/10/06 11:27:51;;;;;;;;;;;21.80;61.50;;;;;;5052466;28;20034;-44
2022/10/06 11:30:18;;;;;;;;;;;21.80;61.40;;;;;;5051287;28;19912;-43
2022/10/06 11:33:02;;;;;;;;;;;21.70;61.40;;;;;;5052176;28;19919;-43
2022/10/06 11:35:34;;;;;;;;;;;21.80;61.50;;;;;;5051949;28;19936;-47
2022/10/06 11:38:18;;;;;;;;;;;21.70;61.30;;;;;;5051943;28;19987;-43
2022/10/06 11:40:58;;;;;;;;;;;21.70;61.40;;;;;;5050254;28;19911;-44
2022/10/06 11:43:26;;;;;;;;;;;21.70;61.20;;;;;;5051944;28;19924;-43
2022/10/06 11:46:12;;;;;;;;;;;21.70;61.20;;;;;;5041810;28;19914;-55
2022/10/06 11:48:37;;;;;;;;;;;21.70;61.10;;;;;;5037000;28;19909;-43
2022/10/06 11:51:16;;;;;;;;;;;21.70;61.20;;;;;;5050709;28;19919;-43
2022/10/06 11:53:43;;;;;;;;;;;21.80;61.20;;;;;;5050502;28;19968;-43
2022/10/06 11:56:17;;;;;;;;;;;21.80;61.10;;;;;;5050922;28;20265;-42
2022/10/06 11:58:55;;;;;;;;;;;21.80;61.00;;;;;;5051720;28;19920;-42
2022/10/06 12:01:29;;;;;;;;;;;21.80;61.00;;;;;;5050957;28;19908;-43
2022/10/06 12:04:04;;;;;;;;;;;21.80;60.90;;;;;;5044841;28;19978;-55
2022/10/06 12:06:49;;;;;;;;;;;21.80;60.90;;;;;;5051116;28;20261;-45
2022/10/06 12:09:28;;;;;;;;;;;21.80;60.80;;;;;;5050644;28;19917;-45
2022/10/06 12:11:54;;;;;;;;;;;21.80;60.90;;;;;;5040890;28;20380;-56
2022/10/06 12:14:40;;;;;;;;;;;21.80;60.90;;;;;;5050591;28;19905;-44
2022/10/06 12:17:17;;;;;;;;;;;21.70;60.90;;;;;;5037611;28;19915;-43
2022/10/06 12:20:02;;;;;;;;;;;21.70;60.80;;;;;;5048769;28;19905;-43
2022/10/06 12:22:39;;;;;;;;;;;21.80;60.80;;;;;;5051782;28;19905;-46
2022/10/06 12:25:12;;;;;;;;;;;21.80;60.80;;;;;;5050093;28;19904;-46
2022/10/06 12:27:42;;;;;;;;;;;21.70;60.70;;;;;;5051339;28;19966;-43
2022/10/06 12:30:11;;;;;;;;;;;21.70;60.70;;;;;;5050654;28;19923;-43
2022/10/06 12:32:39;;;;;;;;;;;21.80;61.30;;;;;;5051568;28;20008;-43
2022/10/06 12:35:14;;;;;;;;;;;21.80;60.70;;;;;;5050285;28;20269;-42
2022/10/06 12:37:42;;;;;;;;;;;21.70;60.60;;;;;;5050966;28;19904;-42
2022/10/06 12:40:26;;;;;;;;;;;21.80;60.50;;;;;;5050233;28;19912;-43
2022/10/06 12:43:08;;;;;;;;;;;21.80;60.50;;;;;;5051016;28;19916;-55
2022/10/06 12:45:34;;;;;;;;;;;21.80;60.40;;;;;;5050443;28;19970;-44
2022/10/06 12:48:01;;;;;;;;;;;21.80;60.40;;;;;;5050447;28;19905;-47
2022/10/06 12:50:27;;;;;;;;;;;21.80;60.40;;;;;;5049994;28;19912;-43
2022/10/06 12:53:00;;;;;;;;;;;21.80;60.40;;;;;;5044505;28;19909;-55
2022/10/06 12:55:34;;;;;;;;;;;21.80;60.40;;;;;;5050871;28;20479;-43
2022/10/06 12:58:00;;;;;;;;;;;21.80;60.40;;;;;;5041503;28;19904;-42
2022/10/06 13:00:30;;;;;;;;;;;21.80;60.30;;;;;;5050967;28;19915;-42
2022/10/06 13:03:00;;;;;;;;;;;21.80;60.40;;;;;;5042932;28;20405;-44
2022/10/06 13:05:25;;;;;;;;;;;21.80;60.40;;;;;;5049481;28;19951;-43
2022/10/06 13:08:00;;;;;;;;;;;21.80;60.30;;;;;;5051176;28;19959;-55
2022/10/06 13:10:28;;;;;;;;;;;21.80;60.40;;;;;;5050725;28;19921;-42
2022/10/06 13:12:56;;;;;;;;;;;21.70;60.30;;;;;;5050709;28;19905;-55
2022/10/06 13:15:23;;;;;;;;;;;21.80;60.30;;;;;;5054498;28;19912;-43
2022/10/06 13:17:51;;;;;;;;;;;21.80;60.30;;;;;;5054849;28;19904;-43
2022/10/06 13:20:38;;;;;;;;;;;21.80;60.20;;;;;;5051030;28;20008;-43
2022/10/06 13:23:05;;;;;;;;;;;21.80;60.30;;;;;;5054400;28;19905;-44
2022/10/06 13:25:41;;;;;;;;;;;21.80;60.30;;;;;;5053780;28;20272;-43
2022/10/06 13:28:20;;;;;;;;;;;21.80;60.30;;;;;;5053494;28;20362;-43
2022/10/06 13:30:48;;;;;;;;;;;21.70;60.20;;;;;;5054530;28;19927;-43
2022/10/06 13:33:14;;;;;;;;;;;21.80;60.20;;;;;;5054140;28;19908;-43
2022/10/06 13:35:40;;;;;;;;;;;21.80;60.20;;;;;;5053925;28;19905;-42
2022/10/06 13:38:05;;;;;;;;;;;21.70;60.10;;;;;;5054140;28;19908;-42
2022/10/06 13:40:32;;;;;;;;;;;21.80;60.20;;;;;;5054251;28;20308;-42
2022/10/06 13:42:59;;;;;;;;;;;21.70;60.00;;;;;;5053823;28;19908;-42
2022/10/06 13:45:25;;;;;;;;;;;21.70;60.00;;;;;;5053570;28;19917;-43
2022/10/06 13:48:04;;;;;;;;;;;21.70;60.00;;;;;;5054315;28;19931;-54
2022/10/06 13:50:30;;;;;;;;;;;21.70;60.00;;;;;;5054120;28;19955;-44
2022/10/06 13:52:55;;;;;;;;;;;21.80;60.10;;;;;;5051419;28;19954;-46
2022/10/06 13:55:22;;;;;;;;;;;21.70;60.10;;;;;;5053627;28;20349;-46
2022/10/06 13:57:49;;;;;;;;;;;21.70;60.10;;;;;;5054068;28;19912;-42
2022/10/06 14:00:14;;;;;;;;;;;21.80;60.10;;;;;;5052699;28;20705;-43
2022/10/06 14:02:47;;;;;;;;;;;21.80;60.10;;;;;;5053115;28;19909;-42
2022/10/06 14:05:32;;;;;;;;;;;21.80;60.10;;;;;;5048850;28;19912;-42
2022/10/06 14:07:59;;;;;;;;;;;21.80;60.00;;;;;;5045615;28;19959;-42
2022/10/06 14:10:39;;;;;;;;;;;21.80;60.00;;;;;;5053200;28;19912;-43
2022/10/06 14:13:07;;;;;;;;;;;21.70;59.90;;;;;;5049735;28;20270;-43
2022/10/06 14:15:37;;;;;;;;;;;21.70;60.00;;;;;;5053304;28;19911;-47
2022/10/06 14:18:03;;;;;;;;;;;21.70;59.80;;;;;;5035638;28;19905;-43
2022/10/06 14:20:35;;;;;;;;;;;21.70;59.80;;;;;;5050712;28;20031;-43
2022/10/06 14:23:00;;;;;;;;;;;21.70;59.80;;;;;;5053135;28;19904;-43
2022/10/06 14:25:25;;;;;;;;;;;21.80;59.80;;;;;;5052943;28;19999;-43
2022/10/06 14:27:51;;;;;;;;;;;21.70;59.70;;;;;;5053545;28;19912;-55
2022/10/06 14:30:16;;;;;;;;;;;21.80;59.80;;;;;;5052339;28;20066;-42
2022/10/06 14:32:42;;;;;;;;;;;21.80;59.70;;;;;;5053632;28;19912;-42
2022/10/06 14:35:09;;;;;;;;;;;21.80;59.70;;;;;;5052183;28;19905;-43
2022/10/06 14:37:35;;;;;;;;;;;21.80;59.60;;;;;;5053217;28;19911;-44